sensor_id;sensor_type;location;lat;lon;timestamp;temperature;humidity
49042;DHT22;34859;51.608;11.462;2023-01-04T00:01:56;5.30;99.90
49042;DHT22;34859;51.608;11.462;2023-01-04T00:04:42;5.40;99.90
49042;DHT22;34859;51.608;11.462;2023-01-04T00:07:29;5.40;99.90
49042;DHT22;34859;51.608;11.462;2023-01-04T00:10:15;5.40;99.90
49042;DHT22;34859;51.608;11.462;2023-01-04T00:13:02;5.30;99.90
49042;DHT22;34859;51.608;11.462;2023-01-04T00:15:49;5.30;99.90
49042;DHT22;34859;51.608;11.462;2023-01-04T00:18:35;5.20;99.90
49042;DHT22;34859;51.608;11.462;2023-01-04T00:21:23;5.20;99.90
49042;DHT22;34859;51.608;11.462;2023-01-04T00:24:10;5.10;99.90
49042;DHT22;34859;51.608;11.462;2023-01-04T00:26:59;5.10;99.90
49042;DHT22;34859;51.608;11.462;2023-01-04T00:29:46;5.00;99.90
49042;DHT22;34859;51.608;11.462;2023-01-04T00:32:32;4.90;99.90
49042;DHT22;34859;51.608;11.462;2023-01-04T00:35:19;4.90;99.90
49042;DHT22;34859;51.608;11.462;2023-01-04T00:38:05;4.80;99.90
49042;DHT22;34859;51.608;11.462;2023-01-04T00:40:52;4.70;99.90
49042;DHT22;34859;51.608;11.462;2023-01-04T00:43:38;4.50;99.90
49042;DHT22;34859;51.608;11.462;2023-01-04T00:46:25;4.60;99.90
49042;DHT22;34859;51.608;11.462;2023-01-04T00:49:11;4.60;99.90
49042;DHT22;34859;51.608;11.462;2023-01-04T00:51:58;4.40;99.90
49042;DHT22;34859;51.608;11.462;2023-01-04T00:54:44;4.30;99.90
49042;DHT22;34859;51.608;11.462;2023-01-04T00:57:31;4.40;99.90
49042;DHT22;34859;51.608;11.462;2023-01-04T01:00:17;4.50;99.90
49042;DHT22;34859;51.608;11.462;2023-01-04T01:03:04;4.70;99.90
49042;DHT22;34859;51.608;11.462;2023-01-04T01:05:50;4.70;99.90
49042;DHT22;34859;51.608;11.462;2023-01-04T01:08:37;4.70;99.90
49042;DHT22;34859;51.608;11.462;2023-01-04T01:11:23;4.80;99.90
49042;DHT22;34859;51.608;11.462;2023-01-04T01:14:12;4.80;99.90
49042;DHT22;34859;51.608;11.462;2023-01-04T01:17:01;4.70;99.90
49042;DHT22;34859;51.608;11.462;2023-01-04T01:19:47;4.80;99.90
49042;DHT22;34859;51.608;11.462;2023-01-04T01:22:34;4.80;99.90
49042;DHT22;34859;51.608;11.462;2023-01-04T01:25:20;4.80;99.90
49042;DHT22;34859;51.608;11.462;2023-01-04T01:28:07;4.70;99.90
49042;DHT22;34859;51.608;11.462;2023-01-04T01:30:54;4.80;99.90
49042;DHT22;34859;51.608;11.462;2023-01-04T01:33:41;4.80;99.90
49042;DHT22;34859;51.608;11.462;2023-01-04T01:36:27;4.80;99.90
49042;DHT22;34859;51.608;11.462;2023-01-04T01:39:14;4.80;99.90
49042;DHT22;34859;51.608;11.462;2023-01-04T01:42:00;4.80;99.90
49042;DHT22;34859;51.608;11.462;2023-01-04T01:44:57;4.80;99.90
49042;DHT22;34859;51.608;11.462;2023-01-04T01:47:44;4.90;99.90
49042;DHT22;34859;51.608;11.462;2023-01-04T01:50:32;4.70;99.90
49042;DHT22;34859;51.608;11.462;2023-01-04T01:53:20;4.60;99.90
49042;DHT22;34859;51.608;11.462;2023-01-04T01:56:07;4.70;99.90
49042;DHT22;34859;51.608;11.462;2023-01-04T01:58:54;4.80;99.90
49042;DHT22;34859;51.608;11.462;2023-01-04T02:01:40;4.90;99.90
49042;DHT22;34859;51.608;11.462;2023-01-04T02:04:27;5.10;99.90
49042;DHT22;34859;51.608;11.462;2023-01-04T02:07:15;5.00;99.90
49042;DHT22;34859;51.608;11.462;2023-01-04T02:10:02;4.90;99.90
49042;DHT22;34859;51.608;11.462;2023-01-04T02:12:49;5.00;99.90
49042;DHT22;34859;51.608;11.462;2023-01-04T02:15:43;5.20;99.90
49042;DHT22;34859;51.608;11.462;2023-01-04T02:18:35;5.30;99.90
49042;DHT22;34859;51.608;11.462;2023-01-04T02:21:26;5.30;99.90
49042;DHT22;34859;51.608;11.462;2023-01-04T02:33:38;5.10;99.90
49042;DHT22;34859;51.608;11.462;2023-01-04T02:39:23;5.10;99.90
49042;DHT22;34859;51.608;11.462;2023-01-04T02:45:08;5.30;99.90
49042;DHT22;34859;51.608;11.462;2023-01-04T02:47:55;5.30;99.90
49042;DHT22;34859;51.608;11.462;2023-01-04T02:51:04;5.30;99.90
49042;DHT22;34859;51.608;11.462;2023-01-04T02:53:50;5.40;99.90
49042;DHT22;34859;51.608;11.462;2023-01-04T03:05:41;5.30;99.90
49042;DHT22;34859;51.608;11.462;2023-01-04T03:09:02;5.30;99.90
49042;DHT22;34859;51.608;11.462;2023-01-04T03:11:54;5.30;99.90
49042;DHT22;34859;51.608;11.462;2023-01-04T03:17:48;5.60;99.90
49042;DHT22;34859;51.608;11.462;2023-01-04T03:20:35;5.60;99.90
49042;DHT22;34859;51.608;11.462;2023-01-04T03:23:21;5.70;99.90
49042;DHT22;34859;51.608;11.462;2023-01-04T03:26:29;5.60;99.90
49042;DHT22;34859;51.608;11.462;2023-01-04T03:29:38;5.60;99.90
49042;DHT22;34859;51.608;11.462;2023-01-04T03:32:50;5.70;99.90
49042;DHT22;34859;51.608;11.462;2023-01-04T03:38:57;5.90;99.90
49042;DHT22;34859;51.608;11.462;2023-01-04T03:45:13;6.10;99.90
49042;DHT22;34859;51.608;11.462;2023-01-04T03:48:20;6.00;99.90
49042;DHT22;34859;51.608;11.462;2023-01-04T03:51:20;6.00;99.90
49042;DHT22;34859;51.608;11.462;2023-01-04T03:54:18;6.10;99.90
49042;DHT22;34859;51.608;11.462;2023-01-04T03:57:06;6.00;99.90
49042;DHT22;34859;51.608;11.462;2023-01-04T03:59:54;6.10;99.90
49042;DHT22;34859;51.608;11.462;2023-01-04T04:02:44;6.10;99.90
49042;DHT22;34859;51.608;11.462;2023-01-04T04:05:30;6.20;99.90
49042;DHT22;34859;51.608;11.462;2023-01-04T04:08:35;6.20;99.90
49042;DHT22;34859;51.608;11.462;2023-01-04T04:11:21;6.30;99.90
49042;DHT22;34859;51.608;11.462;2023-01-04T04:14:16;6.30;99.90
49042;DHT22;34859;51.608;11.462;2023-01-04T04:17:03;6.30;99.90
49042;DHT22;34859;51.608;11.462;2023-01-04T04:19:49;6.40;99.90
49042;DHT22;34859;51.608;11.462;2023-01-04T04:22:35;6.40;99.90
49042;DHT22;34859;51.608;11.462;2023-01-04T04:25:22;6.40;99.90
49042;DHT22;34859;51.608;11.462;2023-01-04T04:28:08;6.40;99.90
49042;DHT22;34859;51.608;11.462;2023-01-04T04:30:55;6.40;99.90
49042;DHT22;34859;51.608;11.462;2023-01-04T04:33:41;6.50;99.90
49042;DHT22;34859;51.608;11.462;2023-01-04T04:36:27;6.50;99.90
49042;DHT22;34859;51.608;11.462;2023-01-04T04:39:14;6.50;99.90
49042;DHT22;34859;51.608;11.462;2023-01-04T04:42:00;6.50;99.90
49042;DHT22;34859;51.608;11.462;2023-01-04T04:44:47;6.50;99.90
49042;DHT22;34859;51.608;11.462;2023-01-04T04:47:33;6.50;99.90
49042;DHT22;34859;51.608;11.462;2023-01-04T04:50:20;6.50;99.90
49042;DHT22;34859;51.608;11.462;2023-01-04T04:53:06;6.40;99.90
49042;DHT22;34859;51.608;11.462;2023-01-04T04:55:53;6.40;99.90
49042;DHT22;34859;51.608;11.462;2023-01-04T04:58:39;6.40;99.90
49042;DHT22;34859;51.608;11.462;2023-01-04T05:01:26;6.30;99.90
49042;DHT22;34859;51.608;11.462;2023-01-04T05:04:12;6.30;99.90
49042;DHT22;34859;51.608;11.462;2023-01-04T05:07:01;6.30;99.90
49042;DHT22;34859;51.608;11.462;2023-01-04T05:09:47;6.30;99.90
49042;DHT22;34859;51.608;11.462;2023-01-04T05:12:33;6.30;99.90
49042;DHT22;34859;51.608;11.462;2023-01-04T05:15:39;6.20;99.90
49042;DHT22;34859;51.608;11.462;2023-01-04T05:18:26;6.20;99.90
49042;DHT22;34859;51.608;11.462;2023-01-04T05:21:12;6.20;99.90
49042;DHT22;34859;51.608;11.462;2023-01-04T05:23:58;6.20;99.90
49042;DHT22;34859;51.608;11.462;2023-01-04T05:26:45;6.30;99.90
49042;DHT22;34859;51.608;11.462;2023-01-04T05:29:31;6.30;99.90
49042;DHT22;34859;51.608;11.462;2023-01-04T05:32:36;6.30;99.90
49042;DHT22;34859;51.608;11.462;2023-01-04T05:35:22;6.30;99.90
49042;DHT22;34859;51.608;11.462;2023-01-04T05:38:09;6.30;99.90
49042;DHT22;34859;51.608;11.462;2023-01-04T05:40:55;6.40;99.90
49042;DHT22;34859;51.608;11.462;2023-01-04T05:43:42;6.50;99.90
49042;DHT22;34859;51.608;11.462;2023-01-04T05:46:28;6.50;99.90
49042;DHT22;34859;51.608;11.462;2023-01-04T05:49:15;6.50;99.90
49042;DHT22;34859;51.608;11.462;2023-01-04T05:52:01;6.40;99.90
49042;DHT22;34859;51.608;11.462;2023-01-04T05:54:48;6.40;99.90
49042;DHT22;34859;51.608;11.462;2023-01-04T05:57:34;6.40;99.90
49042;DHT22;34859;51.608;11.462;2023-01-04T06:00:21;6.50;99.90
49042;DHT22;34859;51.608;11.462;2023-01-04T06:03:07;6.40;99.90
49042;DHT22;34859;51.608;11.462;2023-01-04T06:05:54;6.40;99.90
49042;DHT22;34859;51.608;11.462;2023-01-04T06:08:40;6.40;99.90
49042;DHT22;34859;51.608;11.462;2023-01-04T06:11:27;6.30;99.90
49042;DHT22;34859;51.608;11.462;2023-01-04T06:14:13;6.30;99.90
49042;DHT22;34859;51.608;11.462;2023-01-04T06:17:00;6.30;99.90
49042;DHT22;34859;51.608;11.462;2023-01-04T06:19:46;6.30;99.90
49042;DHT22;34859;51.608;11.462;2023-01-04T06:22:33;6.40;99.90
49042;DHT22;34859;51.608;11.462;2023-01-04T06:25:19;6.40;99.90
49042;DHT22;34859;51.608;11.462;2023-01-04T06:28:06;6.40;99.90
49042;DHT22;34859;51.608;11.462;2023-01-04T06:30:52;6.40;99.90
49042;DHT22;34859;51.608;11.462;2023-01-04T06:33:39;6.40;99.90
49042;DHT22;34859;51.608;11.462;2023-01-04T06:36:25;6.40;99.90
49042;DHT22;34859;51.608;11.462;2023-01-04T06:39:11;6.40;99.90
49042;DHT22;34859;51.608;11.462;2023-01-04T06:41:58;6.40;99.90
49042;DHT22;34859;51.608;11.462;2023-01-04T06:44:44;6.40;99.90
49042;DHT22;34859;51.608;11.462;2023-01-04T06:47:31;6.40;99.90
49042;DHT22;34859;51.608;11.462;2023-01-04T06:50:17;6.40;99.90
49042;DHT22;34859;51.608;11.462;2023-01-04T06:53:03;6.40;99.90
49042;DHT22;34859;51.608;11.462;2023-01-04T06:55:50;6.40;99.90
49042;DHT22;34859;51.608;11.462;2023-01-04T06:58:37;6.50;99.90
49042;DHT22;34859;51.608;11.462;2023-01-04T07:01:23;6.50;99.90
49042;DHT22;34859;51.608;11.462;2023-01-04T07:04:09;6.50;99.90
49042;DHT22;34859;51.608;11.462;2023-01-04T07:06:56;6.50;99.90
49042;DHT22;34859;51.608;11.462;2023-01-04T07:09:42;6.50;99.90
49042;DHT22;34859;51.608;11.462;2023-01-04T07:12:29;6.60;99.90
49042;DHT22;34859;51.608;11.462;2023-01-04T07:15:15;6.60;99.90
49042;DHT22;34859;51.608;11.462;2023-01-04T07:18:02;6.60;99.90
49042;DHT22;34859;51.608;11.462;2023-01-04T07:20:48;6.60;99.90
49042;DHT22;34859;51.608;11.462;2023-01-04T07:23:35;6.60;99.90
49042;DHT22;34859;51.608;11.462;2023-01-04T07:26:21;6.60;99.90
49042;DHT22;34859;51.608;11.462;2023-01-04T07:29:08;6.70;99.90
49042;DHT22;34859;51.608;11.462;2023-01-04T07:31:59;6.70;99.90
49042;DHT22;34859;51.608;11.462;2023-01-04T07:34:45;6.70;99.90
49042;DHT22;34859;51.608;11.462;2023-01-04T07:37:32;6.70;99.90
49042;DHT22;34859;51.608;11.462;2023-01-04T07:40:18;6.80;99.90
49042;DHT22;34859;51.608;11.462;2023-01-04T07:43:05;6.90;99.90
49042;DHT22;34859;51.608;11.462;2023-01-04T07:45:51;6.90;99.90
49042;DHT22;34859;51.608;11.462;2023-01-04T07:48:38;7.00;99.90
49042;DHT22;34859;51.608;11.462;2023-01-04T07:51:24;7.00;99.90
49042;DHT22;34859;51.608;11.462;2023-01-04T07:54:11;7.10;99.90
49042;DHT22;34859;51.608;11.462;2023-01-04T07:56:57;7.10;99.90
49042;DHT22;34859;51.608;11.462;2023-01-04T07:59:43;7.20;99.90
49042;DHT22;34859;51.608;11.462;2023-01-04T08:02:30;7.20;99.90
49042;DHT22;34859;51.608;11.462;2023-01-04T08:05:16;7.20;99.90
49042;DHT22;34859;51.608;11.462;2023-01-04T08:08:03;7.20;99.90
49042;DHT22;34859;51.608;11.462;2023-01-04T08:10:49;7.20;99.90
49042;DHT22;34859;51.608;11.462;2023-01-04T08:13:36;7.20;99.90
49042;DHT22;34859;51.608;11.462;2023-01-04T08:16:23;7.20;99.90
49042;DHT22;34859;51.608;11.462;2023-01-04T08:21:58;7.20;99.90
49042;DHT22;34859;51.608;11.462;2023-01-04T08:24:44;7.30;99.90
49042;DHT22;34859;51.608;11.462;2023-01-04T08:27:31;7.30;99.90
49042;DHT22;34859;51.608;11.462;2023-01-04T08:30:17;7.40;99.90
49042;DHT22;34859;51.608;11.462;2023-01-04T08:33:11;7.40;99.90
49042;DHT22;34859;51.608;11.462;2023-01-04T08:36:16;7.40;99.90
49042;DHT22;34859;51.608;11.462;2023-01-04T08:39:04;7.50;99.90
49042;DHT22;34859;51.608;11.462;2023-01-04T08:41:50;7.50;99.90
49042;DHT22;34859;51.608;11.462;2023-01-04T08:44:38;7.50;99.90
49042;DHT22;34859;51.608;11.462;2023-01-04T08:47:25;7.50;99.90
49042;DHT22;34859;51.608;11.462;2023-01-04T08:50:11;7.60;99.90
49042;DHT22;34859;51.608;11.462;2023-01-04T08:53:01;7.60;99.90
49042;DHT22;34859;51.608;11.462;2023-01-04T08:55:48;7.60;99.90
49042;DHT22;34859;51.608;11.462;2023-01-04T08:58:35;7.60;99.90
49042;DHT22;34859;51.608;11.462;2023-01-04T09:01:22;7.60;99.90
49042;DHT22;34859;51.608;11.462;2023-01-04T09:04:08;7.70;99.90
49042;DHT22;34859;51.608;11.462;2023-01-04T09:06:55;7.70;99.90
49042;DHT22;34859;51.608;11.462;2023-01-04T09:09:42;7.80;99.90
49042;DHT22;34859;51.608;11.462;2023-01-04T09:12:28;7.80;99.90
49042;DHT22;34859;51.608;11.462;2023-01-04T09:15:14;7.80;99.90
49042;DHT22;34859;51.608;11.462;2023-01-04T09:18:02;7.80;99.90
49042;DHT22;34859;51.608;11.462;2023-01-04T09:20:49;7.80;99.90
49042;DHT22;34859;51.608;11.462;2023-01-04T09:23:36;7.90;99.90
49042;DHT22;34859;51.608;11.462;2023-01-04T09:26:22;7.90;99.90
49042;DHT22;34859;51.608;11.462;2023-01-04T09:29:09;8.00;99.90
49042;DHT22;34859;51.608;11.462;2023-01-04T09:31:55;8.00;99.90
49042;DHT22;34859;51.608;11.462;2023-01-04T09:34:42;8.10;99.90
49042;DHT22;34859;51.608;11.462;2023-01-04T09:37:28;8.10;99.90
49042;DHT22;34859;51.608;11.462;2023-01-04T09:40:19;8.10;99.90
49042;DHT22;34859;51.608;11.462;2023-01-04T09:43:07;8.10;99.90
49042;DHT22;34859;51.608;11.462;2023-01-04T09:45:57;8.10;99.90
49042;DHT22;34859;51.608;11.462;2023-01-04T09:48:44;8.20;99.90
49042;DHT22;34859;51.608;11.462;2023-01-04T09:51:33;8.20;99.90
49042;DHT22;34859;51.608;11.462;2023-01-04T09:54:22;8.20;99.90
49042;DHT22;34859;51.608;11.462;2023-01-04T10:00:27;8.20;99.90
49042;DHT22;34859;51.608;11.462;2023-01-04T10:03:22;8.20;99.90
49042;DHT22;34859;51.608;11.462;2023-01-04T10:06:09;8.10;99.90
49042;DHT22;34859;51.608;11.462;2023-01-04T10:08:57;8.20;99.90
49042;DHT22;34859;51.608;11.462;2023-01-04T10:20:55;8.20;99.90
49042;DHT22;34859;51.608;11.462;2023-01-04T10:26:47;8.20;99.90
49042;DHT22;34859;51.608;11.462;2023-01-04T10:29:46;8.20;99.90
49042;DHT22;34859;51.608;11.462;2023-01-04T10:32:36;8.20;99.90
49042;DHT22;34859;51.608;11.462;2023-01-04T10:35:25;8.30;99.90
49042;DHT22;34859;51.608;11.462;2023-01-04T10:38:16;8.30;99.90
49042;DHT22;34859;51.608;11.462;2023-01-04T10:41:04;8.30;99.90
49042;DHT22;34859;51.608;11.462;2023-01-04T10:46:46;8.40;99.90
49042;DHT22;34859;51.608;11.462;2023-01-04T10:49:40;8.40;99.90
49042;DHT22;34859;51.608;11.462;2023-01-04T10:52:29;8.40;99.90
49042;DHT22;34859;51.608;11.462;2023-01-04T10:55:27;8.40;99.90
49042;DHT22;34859;51.608;11.462;2023-01-04T11:01:05;8.40;99.90
49042;DHT22;34859;51.608;11.462;2023-01-04T11:06:51;8.40;99.90
49042;DHT22;34859;51.608;11.462;2023-01-04T11:12:25;8.40;99.90
49042;DHT22;34859;51.608;11.462;2023-01-04T11:15:11;8.40;99.90
49042;DHT22;34859;51.608;11.462;2023-01-04T11:17:59;8.40;99.90
49042;DHT22;34859;51.608;11.462;2023-01-04T11:20:46;8.40;99.90
49042;DHT22;34859;51.608;11.462;2023-01-04T11:23:32;8.30;99.90
49042;DHT22;34859;51.608;11.462;2023-01-04T11:26:21;8.30;99.90
49042;DHT22;34859;51.608;11.462;2023-01-04T11:29:23;8.30;99.90
49042;DHT22;34859;51.608;11.462;2023-01-04T11:32:29;8.40;99.90
49042;DHT22;34859;51.608;11.462;2023-01-04T11:35:38;8.40;99.90
49042;DHT22;34859;51.608;11.462;2023-01-04T11:38:26;8.40;99.90
49042;DHT22;34859;51.608;11.462;2023-01-04T11:41:15;8.50;99.90
49042;DHT22;34859;51.608;11.462;2023-01-04T11:44:03;8.50;99.90
49042;DHT22;34859;51.608;11.462;2023-01-04T11:47:10;8.50;99.90
49042;DHT22;34859;51.608;11.462;2023-01-04T11:50:01;8.50;99.90
49042;DHT22;34859;51.608;11.462;2023-01-04T11:52:47;8.50;99.90
49042;DHT22;34859;51.608;11.462;2023-01-04T11:55:34;8.60;99.90
49042;DHT22;34859;51.608;11.462;2023-01-04T11:58:20;8.60;99.90
49042;DHT22;34859;51.608;11.462;2023-01-04T12:01:17;8.60;99.90
49042;DHT22;34859;51.608;11.462;2023-01-04T12:04:05;8.60;99.90
49042;DHT22;34859;51.608;11.462;2023-01-04T12:07:10;8.60;99.90
49042;DHT22;34859;51.608;11.462;2023-01-04T12:10:06;8.60;99.90
49042;DHT22;34859;51.608;11.462;2023-01-04T12:12:56;8.70;99.90
49042;DHT22;34859;51.608;11.462;2023-01-04T12:18:48;8.80;99.90
49042;DHT22;34859;51.608;11.462;2023-01-04T12:21:33;8.70;99.90
49042;DHT22;34859;51.608;11.462;2023-01-04T12:24:24;8.70;99.90
49042;DHT22;34859;51.608;11.462;2023-01-04T12:27:12;8.80;99.90
49042;DHT22;34859;51.608;11.462;2023-01-04T12:29:59;8.90;99.90
49042;DHT22;34859;51.608;11.462;2023-01-04T12:32:45;9.00;99.90
49042;DHT22;34859;51.608;11.462;2023-01-04T12:47:37;9.00;99.90
49042;DHT22;34859;51.608;11.462;2023-01-04T12:51:15;8.90;99.90
49042;DHT22;34859;51.608;11.462;2023-01-04T12:54:02;8.80;99.90
49042;DHT22;34859;51.608;11.462;2023-01-04T13:00:14;8.70;99.90
49042;DHT22;34859;51.608;11.462;2023-01-04T13:06:05;8.80;99.90
49042;DHT22;34859;51.608;11.462;2023-01-04T13:08:51;8.80;99.90
49042;DHT22;34859;51.608;11.462;2023-01-04T13:14:42;9.00;99.90
49042;DHT22;34859;51.608;11.462;2023-01-04T13:17:28;8.90;99.90
49042;DHT22;34859;51.608;11.462;2023-01-04T13:20:20;8.90;99.90
49042;DHT22;34859;51.608;11.462;2023-01-04T13:23:07;8.90;99.90
49042;DHT22;34859;51.608;11.462;2023-01-04T13:25:55;8.90;99.90
49042;DHT22;34859;51.608;11.462;2023-01-04T13:28:41;8.90;99.90
49042;DHT22;34859;51.608;11.462;2023-01-04T13:31:28;9.00;99.90
49042;DHT22;34859;51.608;11.462;2023-01-04T13:34:36;9.00;99.90
49042;DHT22;34859;51.608;11.462;2023-01-04T13:37:36;9.10;99.90
49042;DHT22;34859;51.608;11.462;2023-01-04T13:40:26;9.10;99.90
49042;DHT22;34859;51.608;11.462;2023-01-04T13:43:20;9.10;99.90
49042;DHT22;34859;51.608;11.462;2023-01-04T13:49:00;9.10;99.90
49042;DHT22;34859;51.608;11.462;2023-01-04T13:51:47;9.10;99.90
49042;DHT22;34859;51.608;11.462;2023-01-04T13:54:32;9.10;99.90
49042;DHT22;34859;51.608;11.462;2023-01-04T13:57:18;9.10;99.90
49042;DHT22;34859;51.608;11.462;2023-01-04T14:00:09;9.10;99.90
49042;DHT22;34859;51.608;11.462;2023-01-04T14:03:43;9.00;99.90
49042;DHT22;34859;51.608;11.462;2023-01-04T14:06:14;9.10;99.90
49042;DHT22;34859;51.608;11.462;2023-01-04T14:09:06;9.10;99.90
49042;DHT22;34859;51.608;11.462;2023-01-04T14:12:06;9.10;99.90
49042;DHT22;34859;51.608;11.462;2023-01-04T14:17:53;9.10;99.90
49042;DHT22;34859;51.608;11.462;2023-01-04T14:20:39;9.10;99.90
49042;DHT22;34859;51.608;11.462;2023-01-04T14:23:26;9.10;99.90
49042;DHT22;34859;51.608;11.462;2023-01-04T14:26:28;9.10;99.90
49042;DHT22;34859;51.608;11.462;2023-01-04T14:29:20;9.10;99.90
49042;DHT22;34859;51.608;11.462;2023-01-04T14:32:07;9.10;99.90
49042;DHT22;34859;51.608;11.462;2023-01-04T14:34:53;9.10;99.90
49042;DHT22;34859;51.608;11.462;2023-01-04T14:37:39;9.10;99.90
49042;DHT22;34859;51.608;11.462;2023-01-04T14:40:25;9.10;99.90
49042;DHT22;34859;51.608;11.462;2023-01-04T14:46:16;9.10;99.90
49042;DHT22;34859;51.608;11.462;2023-01-04T14:49:02;9.10;99.90
49042;DHT22;34859;51.608;11.462;2023-01-04T14:52:30;9.10;99.90
49042;DHT22;34859;51.608;11.462;2023-01-04T14:54:56;9.20;99.90
49042;DHT22;34859;51.608;11.462;2023-01-04T14:57:43;9.20;99.90
49042;DHT22;34859;51.608;11.462;2023-01-04T15:00:30;9.20;99.90
49042;DHT22;34859;51.608;11.462;2023-01-04T15:03:16;9.10;99.90
49042;DHT22;34859;51.608;11.462;2023-01-04T15:06:02;9.20;99.90
49042;DHT22;34859;51.608;11.462;2023-01-04T15:08:49;9.20;99.90
49042;DHT22;34859;51.608;11.462;2023-01-04T15:11:36;9.20;99.90
49042;DHT22;34859;51.608;11.462;2023-01-04T15:14:22;9.10;99.90
49042;DHT22;34859;51.608;11.462;2023-01-04T15:17:08;9.10;99.90
49042;DHT22;34859;51.608;11.462;2023-01-04T15:19:54;9.10;99.90
49042;DHT22;34859;51.608;11.462;2023-01-04T15:22:41;9.10;99.90
49042;DHT22;34859;51.608;11.462;2023-01-04T15:25:26;9.10;99.90
49042;DHT22;34859;51.608;11.462;2023-01-04T15:28:14;9.10;99.90
49042;DHT22;34859;51.608;11.462;2023-01-04T15:31:08;9.00;99.90
49042;DHT22;34859;51.608;11.462;2023-01-04T15:33:54;9.10;99.90
49042;DHT22;34859;51.608;11.462;2023-01-04T15:36:40;9.10;99.90
49042;DHT22;34859;51.608;11.462;2023-01-04T15:39:26;9.10;99.90
49042;DHT22;34859;51.608;11.462;2023-01-04T15:42:11;9.00;99.90
49042;DHT22;34859;51.608;11.462;2023-01-04T15:45:16;9.10;99.90
49042;DHT22;34859;51.608;11.462;2023-01-04T15:48:05;9.00;99.90
49042;DHT22;34859;51.608;11.462;2023-01-04T15:50:51;9.00;99.90
49042;DHT22;34859;51.608;11.462;2023-01-04T15:53:37;9.00;99.90
49042;DHT22;34859;51.608;11.462;2023-01-04T15:56:23;9.10;99.90
49042;DHT22;34859;51.608;11.462;2023-01-04T15:59:09;9.10;99.90
49042;DHT22;34859;51.608;11.462;2023-01-04T16:01:55;9.10;99.90
49042;DHT22;34859;51.608;11.462;2023-01-04T16:04:41;9.10;99.90
49042;DHT22;34859;51.608;11.462;2023-01-04T16:07:29;9.10;99.90
49042;DHT22;34859;51.608;11.462;2023-01-04T16:10:15;9.10;99.90
49042;DHT22;34859;51.608;11.462;2023-01-04T16:13:01;9.10;99.90
49042;DHT22;34859;51.608;11.462;2023-01-04T16:15:46;9.10;99.90
49042;DHT22;34859;51.608;11.462;2023-01-04T16:18:32;9.10;99.90
49042;DHT22;34859;51.608;11.462;2023-01-04T16:21:19;9.10;99.90
49042;DHT22;34859;51.608;11.462;2023-01-04T16:24:07;9.10;99.90
49042;DHT22;34859;51.608;11.462;2023-01-04T16:26:54;9.10;99.90
49042;DHT22;34859;51.608;11.462;2023-01-04T16:29:40;9.10;99.90
49042;DHT22;34859;51.608;11.462;2023-01-04T16:32:25;9.10;99.90
49042;DHT22;34859;51.608;11.462;2023-01-04T16:35:11;9.10;99.90
49042;DHT22;34859;51.608;11.462;2023-01-04T16:37:58;9.10;99.90
49042;DHT22;34859;51.608;11.462;2023-01-04T16:40:43;9.10;99.90
49042;DHT22;34859;51.608;11.462;2023-01-04T16:43:29;9.20;99.90
49042;DHT22;34859;51.608;11.462;2023-01-04T16:51:50;9.20;99.90
49042;DHT22;34859;51.608;11.462;2023-01-04T16:54:36;9.20;99.90
49042;DHT22;34859;51.608;11.462;2023-01-04T16:57:22;9.20;99.90
49042;DHT22;34859;51.608;11.462;2023-01-04T17:00:08;9.30;99.90
49042;DHT22;34859;51.608;11.462;2023-01-04T17:02:55;9.30;99.90
49042;DHT22;34859;51.608;11.462;2023-01-04T17:05:41;9.40;99.90
49042;DHT22;34859;51.608;11.462;2023-01-04T17:08:27;9.40;99.90
49042;DHT22;34859;51.608;11.462;2023-01-04T17:11:13;9.40;99.90
49042;DHT22;34859;51.608;11.462;2023-01-04T17:14:00;9.50;99.90
49042;DHT22;34859;51.608;11.462;2023-01-04T17:16:46;9.50;99.90
49042;DHT22;34859;51.608;11.462;2023-01-04T17:19:32;9.60;99.90
49042;DHT22;34859;51.608;11.462;2023-01-04T17:22:18;9.60;99.90
49042;DHT22;34859;51.608;11.462;2023-01-04T17:25:04;9.60;99.90
49042;DHT22;34859;51.608;11.462;2023-01-04T17:27:50;9.60;99.90
49042;DHT22;34859;51.608;11.462;2023-01-04T17:30:37;9.60;99.90
49042;DHT22;34859;51.608;11.462;2023-01-04T17:33:22;9.60;99.90
49042;DHT22;34859;51.608;11.462;2023-01-04T17:36:09;9.60;99.90
49042;DHT22;34859;51.608;11.462;2023-01-04T17:38:59;9.50;99.90
49042;DHT22;34859;51.608;11.462;2023-01-04T17:41:47;9.50;99.90
49042;DHT22;34859;51.608;11.462;2023-01-04T17:44:33;9.40;99.90
49042;DHT22;34859;51.608;11.462;2023-01-04T17:47:19;9.40;99.90
49042;DHT22;34859;51.608;11.462;2023-01-04T17:50:05;9.40;99.90
49042;DHT22;34859;51.608;11.462;2023-01-04T17:52:51;9.40;99.90
49042;DHT22;34859;51.608;11.462;2023-01-04T17:55:37;9.40;99.90
49042;DHT22;34859;51.608;11.462;2023-01-04T17:58:23;9.40;99.90
49042;DHT22;34859;51.608;11.462;2023-01-04T18:01:09;9.40;99.90
49042;DHT22;34859;51.608;11.462;2023-01-04T18:03:56;9.50;99.90
49042;DHT22;34859;51.608;11.462;2023-01-04T18:06:42;9.50;99.90
49042;DHT22;34859;51.608;11.462;2023-01-04T18:09:28;9.50;99.90
49042;DHT22;34859;51.608;11.462;2023-01-04T18:12:14;9.50;99.90
49042;DHT22;34859;51.608;11.462;2023-01-04T18:15:01;9.50;99.90
49042;DHT22;34859;51.608;11.462;2023-01-04T18:17:50;9.50;99.90
49042;DHT22;34859;51.608;11.462;2023-01-04T18:20:36;9.60;99.90
49042;DHT22;34859;51.608;11.462;2023-01-04T18:23:22;9.70;99.90
49042;DHT22;34859;51.608;11.462;2023-01-04T18:26:08;9.70;99.90
49042;DHT22;34859;51.608;11.462;2023-01-04T18:28:54;9.80;99.90
49042;DHT22;34859;51.608;11.462;2023-01-04T18:31:40;9.80;99.90
49042;DHT22;34859;51.608;11.462;2023-01-04T18:34:26;9.80;99.90
49042;DHT22;34859;51.608;11.462;2023-01-04T18:37:12;9.90;99.90
49042;DHT22;34859;51.608;11.462;2023-01-04T18:39:59;9.90;99.90
49042;DHT22;34859;51.608;11.462;2023-01-04T18:42:45;9.90;99.90
49042;DHT22;34859;51.608;11.462;2023-01-04T18:45:31;10.00;99.90
49042;DHT22;34859;51.608;11.462;2023-01-04T18:48:17;10.00;99.90
49042;DHT22;34859;51.608;11.462;2023-01-04T18:51:04;10.00;99.90
49042;DHT22;34859;51.608;11.462;2023-01-04T18:53:50;10.10;99.90
49042;DHT22;34859;51.608;11.462;2023-01-04T18:56:36;10.10;99.90
49042;DHT22;34859;51.608;11.462;2023-01-04T18:59:22;10.30;99.90
49042;DHT22;34859;51.608;11.462;2023-01-04T19:02:08;10.30;99.90
49042;DHT22;34859;51.608;11.462;2023-01-04T19:04:56;10.40;99.90
49042;DHT22;34859;51.608;11.462;2023-01-04T19:07:41;10.40;99.90
49042;DHT22;34859;51.608;11.462;2023-01-04T19:10:27;10.50;99.90
49042;DHT22;34859;51.608;11.462;2023-01-04T19:13:13;10.60;99.90
49042;DHT22;34859;51.608;11.462;2023-01-04T19:15:59;10.60;99.90
49042;DHT22;34859;51.608;11.462;2023-01-04T19:18:45;10.60;99.90
49042;DHT22;34859;51.608;11.462;2023-01-04T19:21:31;10.60;99.90
49042;DHT22;34859;51.608;11.462;2023-01-04T19:24:16;10.70;99.90
49042;DHT22;34859;51.608;11.462;2023-01-04T19:27:02;10.80;99.90